• Join FlightAware (Why Join?)
  • Login
  • US Flag 
11:00PM EDT


 

Airport Tracker/Info


-or-


 

Live Flight TrackerFlight Track Log ✈ ASQ5069 ✈ 13-May-2013 ✈ KMSN - KMSP

Flight Track Log - Related Links

Times and Time Zones

All times are in EDT time to prevent confusion due to time zone crossing. See the ASQ5069 flight status page for this flight to view local times or setup timezone preferences in your user account.

Time Position Orientation Groundspeed Altitude Reporting Facility
EDT Latitude Longitude Course Direction KTS MPH feet Rate Location/Type
02:07PM 43.0914 -89.3669 283° West 167 192 3,300  Level Minneapolis Center
02:08PM 43.0894 -89.4281 268° West 198 228 5,300 2,280 Climbing Chicago Center
02:09PM 43.1097 -89.5136 288° West 230 265 7,700 2,700 Climbing Chicago Center
02:10PM 43.1350 -89.6242 287° West 254 292 11,000 2,460 Climbing Chicago Center
02:11PM 43.1586 -89.7261 288° West 280 322 12,800 1,740 Climbing Chicago Center
02:12PM 43.1788 -89.5728 283° West  Level FlightAware Approximate
02:12PM 43.1858 -89.8419 288° West 316 364 14,700  Level Chicago Center
02:13PM 43.2131 -89.9633 287° West 331 381 16,900 1,980 Climbing Chicago Center
02:14PM 43.2408 -90.0842 288° West 333 383 18,800 1,980 Climbing Chicago Center
02:15PM 43.2739 -90.2289 287° West 341 392 21,000 1,500 Climbing Chicago Center
02:16PM 43.3008 -90.3506 287° West 350 403 22,000 480 Climbing Chicago Center
02:17PM 43.3328 -90.4897 288° West 385 443 22,000  Level Chicago Center
02:18PM 43.3747 -90.6686 288° West 408 470 22,000  Level Minneapolis Center
02:19PM 43.4081 -90.8156 287° West 409 471 22,000  Level Minneapolis Center
02:20PM 43.4394 -90.9631 286° West 407 468 22,000  Level Minneapolis Center
02:21PM 43.4792 -91.1378 287° West 405 466 22,000  Level Minneapolis Center
02:22PM 43.5097 -91.2844 286° West 404 465 22,000  Level Minneapolis Center
02:23PM 43.5406 -91.4292 286° West 402 463 22,000  Level Minneapolis Center
02:24PM 43.5728 -91.5750 287° West 403 464 22,000  Level Minneapolis Center
02:25PM 43.6094 -91.7522 286° West 406 467 22,000  Level Minneapolis Center
02:26PM 43.6403 -91.8983 286° West 402 463 22,000  Level Minneapolis Center
02:27PM 43.6706 -92.0436 286° West 399 459 22,000 -660 Level Minneapolis Center
02:28PM 43.7014 -92.1931 286° West 407 468 20,700 -1,320 Descending Minneapolis Center
02:29PM 43.7322 -92.3411 286° West 404 465 19,300 -1,500 Descending Minneapolis Center
02:30PM 43.7672 -92.5144 286° West 395 455 17,700 -1,440 Descending Minneapolis Center
02:32PM 43.8292 -92.6292 307° West 376 433 16,400 -780 Descending Minneapolis Center
02:33PM 43.8964 -92.7281 313° West 356 410 16,100 -240 Descending Minneapolis Center
02:34PM 43.9650 -92.8272 314° West 359 413 16,000 -900 Descending Minneapolis Center
02:35PM 44.0350 -92.9297 314° West 368 423 14,300 -1,800 Descending Minneapolis Center
02:36PM 44.1142 -93.0453 314° West 349 402 12,300 -1,920 Descending Minneapolis Center
02:37PM 44.1761 -93.1364 313° West 330 380 10,400 -1,140 Descending Minneapolis Center
02:38PM 44.2506 -93.2142 323° Northwest 317 365 10,000 -240 Descending Minneapolis Center
02:39PM 44.3519 -93.2092 North 337 388 10,000  Level Minneapolis Center
02:40PM 44.4461 -93.1997 North 338 389 10,000  Level Minneapolis Center
02:41PM 44.5408 -93.1911 North 340 391 10,000 -360 Level Minneapolis Center
02:42PM 44.6314 -93.1864 North 286 329 9,300 -1,020 Descending Minneapolis Center
02:43PM 44.7089 -93.1872 360° North 282 325 8,000 -660 Descending Minneapolis Center
02:44PM 44.7950 -93.1753 North 288 331 8,000  Level Minneapolis Center
02:45PM 44.8736 -93.1611 North 288 331 8,000 -720 Level Minneapolis Center
02:46PM 44.9492 -93.2044 338° Northwest 274 315 6,600 -1,080 Descending Minneapolis Center
02:47PM 45.0125 -93.2522 332° Northwest 264 304 5,800 -1,260 Descending Minneapolis Center
02:48PM 45.0431 -93.3311 299° West 225 259 4,000 -1,020 Descending Minneapolis Center
02:49PM 44.9986 -93.3706 212° Southwest 202 232 3,800 -540 Descending Minneapolis Center
02:50PM 44.9544 -93.3517 163° South 156 180 3,000 -720 Descending Minneapolis Center
02:51PM 44.9308 -93.3103 129° Southeast 136 157 2,400 -720 Descending Minneapolis Center
02:52PM 44.9131 -93.2664 120° Southeast 123 142 1,600 -780 Descending Minneapolis Center
02:54PM 44.8820 -93.2218 138° Southeast  Level Estimated
03:01PM 44.8820 -93.2218 138° Southeast  Level Estimated